Lost Hills, California
Current Conditions -  °F | °C
As of 12:54 AM on Monday 20 Oct 2014 (Local Time) from KBFL Reporting Station
Clear Clear  
Wind Chill: 67°   Ceiling: Unl
Heat Index: 67°   Visibility: 10mi
Dew Point: 48°   Wind: 5mph
Humidity: 51%   Direction: 90°E
Pressure: 29.87"   Gusts: NA
Location:  35.62°N, 119.7°W
Report Text: KBFL 200754Z AUTO 09004KT 10SM CLR 19/09 A2987 RMK AO2 SLP108 T01940089 402780133
Loading
Personal Weather Stations






























Interactive Weather Map
Tropical Storm Tracking
New forecast layout! Learn more

10-Day Weather Forecast

Advertisements
Track Severe Weather on mobile